sensor_id;sensor_type;location;lat;lon;timestamp;pressure;altitude;pressure_sealevel;temperature;humidity
42603;BME280;28233;55.748;48.752;2022-09-13T00:01:57;99901.09;;;8.47;89.36
42603;BME280;28233;55.748;48.752;2022-09-13T00:04:00;99904.84;;;8.51;88.61
42603;BME280;28233;55.748;48.752;2022-09-13T00:06:10;99897.75;;;8.50;88.95
42603;BME280;28233;55.748;48.752;2022-09-13T00:08:13;99903.94;;;8.56;88.92
42603;BME280;28233;55.748;48.752;2022-09-13T00:10:16;99904.47;;;8.58;89.02
42603;BME280;28233;55.748;48.752;2022-09-13T00:12:18;99905.78;;;8.60;89.28
42603;BME280;28233;55.748;48.752;2022-09-13T00:14:21;99903.56;;;8.62;89.43
42603;BME280;28233;55.748;48.752;2022-09-13T00:16:26;99908.75;;;8.64;89.25
42603;BME280;28233;55.748;48.752;2022-09-13T00:18:29;99911.50;;;8.64;89.51
42603;BME280;28233;55.748;48.752;2022-09-13T00:20:32;99902.78;;;8.62;89.90
42603;BME280;28233;55.748;48.752;2022-09-13T00:22:35;99909.56;;;8.64;89.83
42603;BME280;28233;55.748;48.752;2022-09-13T00:24:38;99902.47;;;8.63;89.95
42603;BME280;28233;55.748;48.752;2022-09-13T00:26:41;99907.97;;;8.63;90.07
42603;BME280;28233;55.748;48.752;2022-09-13T00:28:44;99902.16;;;8.65;90.09
42603;BME280;28233;55.748;48.752;2022-09-13T00:30:47;99903.81;;;8.66;89.96
42603;BME280;28233;55.748;48.752;2022-09-13T00:32:49;99896.41;;;8.66;89.96
42603;BME280;28233;55.748;48.752;2022-09-13T00:34:52;99899.13;;;8.66;89.52
42603;BME280;28233;55.748;48.752;2022-09-13T00:36:54;99898.31;;;8.66;89.86
42603;BME280;28233;55.748;48.752;2022-09-13T00:38:58;99906.53;;;8.66;89.99
42603;BME280;28233;55.748;48.752;2022-09-13T00:41:04;99910.09;;;8.66;89.97
42603;BME280;28233;55.748;48.752;2022-09-13T00:43:16;99900.84;;;8.62;89.74
42603;BME280;28233;55.748;48.752;2022-09-13T00:45:20;99904.09;;;8.64;89.69
42603;BME280;28233;55.748;48.752;2022-09-13T00:49:35;99905.78;;;8.60;89.56
42603;BME280;28233;55.748;48.752;2022-09-13T00:51:42;99904.19;;;8.59;89.35
42603;BME280;28233;55.748;48.752;2022-09-13T00:53:49;99902.63;;;8.53;89.61
42603;BME280;28233;55.748;48.752;2022-09-13T00:56:17;99902.63;;;8.53;89.92
42603;BME280;28233;55.748;48.752;2022-09-13T00:58:34;99899.38;;;8.51;90.17
42603;BME280;28233;55.748;48.752;2022-09-13T01:00:38;99907.91;;;8.50;90.13
42603;BME280;28233;55.748;48.752;2022-09-13T01:02:49;99897.53;;;8.46;89.93
42603;BME280;28233;55.748;48.752;2022-09-13T01:04:54;99905.75;;;8.46;90.00
42603;BME280;28233;55.748;48.752;2022-09-13T01:06:59;99904.66;;;8.48;89.76
42603;BME280;28233;55.748;48.752;2022-09-13T01:09:03;99905.25;;;8.44;89.95
42603;BME280;28233;55.748;48.752;2022-09-13T01:11:11;99908.47;;;8.46;89.95
42603;BME280;28233;55.748;48.752;2022-09-13T01:13:23;99910.41;;;8.46;89.72
42603;BME280;28233;55.748;48.752;2022-09-13T01:15:26;99912.06;;;8.47;89.90
42603;BME280;28233;55.748;48.752;2022-09-13T01:17:30;99907.38;;;8.48;89.83
42603;BME280;28233;55.748;48.752;2022-09-13T01:19:34;99906.25;;;8.49;89.89
42603;BME280;28233;55.748;48.752;2022-09-13T01:22:09;99902.44;;;8.50;89.46
42603;BME280;28233;55.748;48.752;2022-09-13T01:42:02;99887.41;;;8.28;89.61
42603;BME280;28233;55.748;48.752;2022-09-13T01:52:00;99873.34;;;7.97;89.59
42603;BME280;28233;55.748;48.752;2022-09-13T01:54:20;99876.75;;;7.89;89.72
42603;BME280;28233;55.748;48.752;2022-09-13T01:56:53;99871.13;;;7.80;89.53
42603;BME280;28233;55.748;48.752;2022-09-13T01:59:05;99868.53;;;7.70;89.52
42603;BME280;28233;55.748;48.752;2022-09-13T02:01:32;99869.78;;;7.58;90.14
42603;BME280;28233;55.748;48.752;2022-09-13T02:03:54;99877.78;;;7.50;90.05
42603;BME280;28233;55.748;48.752;2022-09-13T02:06:00;99881.19;;;7.41;91.27
42603;BME280;28233;55.748;48.752;2022-09-13T02:08:09;99884.56;;;7.33;90.90
42603;BME280;28233;55.748;48.752;2022-09-13T02:10:25;99889.56;;;7.26;91.59
42603;BME280;28233;55.748;48.752;2022-09-13T02:12:33;99888.53;;;7.22;91.41
42603;BME280;28233;55.748;48.752;2022-09-13T02:14:38;99889.41;;;7.17;92.16
42603;BME280;28233;55.748;48.752;2022-09-13T02:16:56;99878.03;;;7.05;92.21
42603;BME280;28233;55.748;48.752;2022-09-13T02:19:08;99891.13;;;7.08;92.49
42603;BME280;28233;55.748;48.752;2022-09-13T02:21:22;99893.94;;;7.03;93.12
42603;BME280;28233;55.748;48.752;2022-09-13T02:23:33;99893.69;;;6.99;92.99
42603;BME280;28233;55.748;48.752;2022-09-13T02:25:40;99888.53;;;6.93;93.83
42603;BME280;28233;55.748;48.752;2022-09-13T02:27:45;99885.28;;;6.91;93.90
42603;BME280;28233;55.748;48.752;2022-09-13T02:29:54;99883.72;;;6.85;94.09
42603;BME280;28233;55.748;48.752;2022-09-13T02:32:20;99883.72;;;6.85;94.50
42603;BME280;28233;55.748;48.752;2022-09-13T02:34:29;99890.56;;;6.82;94.43
42603;BME280;28233;55.748;48.752;2022-09-13T02:36:37;99893.06;;;6.78;94.22
42603;BME280;28233;55.748;48.752;2022-09-13T02:39:23;99888.13;;;6.81;94.89
42603;BME280;28233;55.748;48.752;2022-09-13T02:43:41;99886.72;;;6.83;95.42
42603;BME280;28233;55.748;48.752;2022-09-13T02:45:50;99887.78;;;6.87;95.62
42603;BME280;28233;55.748;48.752;2022-09-13T02:48:03;99878.22;;;6.90;95.88
42603;BME280;28233;55.748;48.752;2022-09-13T02:50:45;99888.00;;;6.91;96.06
42603;BME280;28233;55.748;48.752;2022-09-13T02:55:21;99879.25;;;6.94;96.42
42603;BME280;28233;55.748;48.752;2022-09-13T02:57:35;99877.03;;;6.96;96.07
42603;BME280;28233;55.748;48.752;2022-09-13T02:59:40;99879.75;;;6.96;96.53
42603;BME280;28233;55.748;48.752;2022-09-13T03:03:58;99877.53;;;7.03;96.49
42603;BME280;28233;55.748;48.752;2022-09-13T03:06:00;99882.69;;;7.05;96.55
42603;BME280;28233;55.748;48.752;2022-09-13T03:08:04;99880.47;;;7.07;96.85
42603;BME280;28233;55.748;48.752;2022-09-13T03:10:10;99876.34;;;7.09;96.90
42603;BME280;28233;55.748;48.752;2022-09-13T03:12:29;99880.66;;;7.15;96.84
42603;BME280;28233;55.748;48.752;2022-09-13T03:14:51;99880.63;;;7.20;96.92
42603;BME280;28233;55.748;48.752;2022-09-13T03:17:46;99884.41;;;7.25;96.89
42603;BME280;28233;55.748;48.752;2022-09-13T03:19:52;99879.97;;;7.29;97.00
42603;BME280;28233;55.748;48.752;2022-09-13T03:24:48;99868.34;;;7.42;97.38
42603;BME280;28233;55.748;48.752;2022-09-13T03:29:11;99866.50;;;7.56;96.92
42603;BME280;28233;55.748;48.752;2022-09-13T03:34:17;99868.22;;;7.71;97.15
42603;BME280;28233;55.748;48.752;2022-09-13T03:36:24;99868.19;;;7.76;96.55
42603;BME280;28233;55.748;48.752;2022-09-13T03:38:38;99867.50;;;7.84;96.50
42603;BME280;28233;55.748;48.752;2022-09-13T03:45:08;99868.09;;;8.00;95.97
42603;BME280;28233;55.748;48.752;2022-09-13T03:47:13;99862.63;;;8.00;95.65
42603;BME280;28233;55.748;48.752;2022-09-13T03:49:19;99865.72;;;8.13;95.15
42603;BME280;28233;55.748;48.752;2022-09-13T03:51:24;99870.03;;;8.19;95.05
42603;BME280;28233;55.748;48.752;2022-09-13T03:53:29;99869.94;;;8.24;95.27
42603;BME280;28233;55.748;48.752;2022-09-13T03:55:34;99869.56;;;8.31;94.91
42603;BME280;28233;55.748;48.752;2022-09-13T03:57:40;99864.19;;;8.39;94.50
42603;BME280;28233;55.748;48.752;2022-09-13T03:59:48;99868.53;;;8.45;94.28
42603;BME280;28233;55.748;48.752;2022-09-13T04:01:50;99868.66;;;8.54;94.37
42603;BME280;28233;55.748;48.752;2022-09-13T04:03:53;99874.56;;;8.61;94.25
42603;BME280;28233;55.748;48.752;2022-09-13T04:05:58;99865.38;;;8.71;93.49
42603;BME280;28233;55.748;48.752;2022-09-13T04:08:01;99852.69;;;8.75;93.25
42603;BME280;28233;55.748;48.752;2022-09-13T04:10:05;99859.09;;;8.84;92.24
42603;BME280;28233;55.748;48.752;2022-09-13T04:12:15;99856.78;;;8.92;91.69
42603;BME280;28233;55.748;48.752;2022-09-13T04:14:18;99854.13;;;9.00;90.71
42603;BME280;28233;55.748;48.752;2022-09-13T04:16:21;99852.41;;;9.04;90.26
42603;BME280;28233;55.748;48.752;2022-09-13T04:18:24;99849.28;;;9.11;89.88
42603;BME280;28233;55.748;48.752;2022-09-13T04:20:27;99851.91;;;9.16;88.28
42603;BME280;28233;55.748;48.752;2022-09-13T04:22:30;99854.88;;;9.20;87.38
42603;BME280;28233;55.748;48.752;2022-09-13T04:24:33;99856.59;;;9.29;86.91
42603;BME280;28233;55.748;48.752;2022-09-13T04:26:37;99852.44;;;9.32;86.37
42603;BME280;28233;55.748;48.752;2022-09-13T04:28:40;99855.59;;;9.39;86.75
42603;BME280;28233;55.748;48.752;2022-09-13T04:30:47;99857.91;;;9.46;86.43
42603;BME280;28233;55.748;48.752;2022-09-13T04:32:50;99862.50;;;9.50;86.08
42603;BME280;28233;55.748;48.752;2022-09-13T04:34:52;99861.66;;;9.50;85.69
42603;BME280;28233;55.748;48.752;2022-09-13T04:36:56;99863.00;;;9.52;86.02
42603;BME280;28233;55.748;48.752;2022-09-13T04:38:58;99865.31;;;9.59;85.31
42603;BME280;28233;55.748;48.752;2022-09-13T04:41:02;99860.53;;;9.65;85.02
42603;BME280;28233;55.748;48.752;2022-09-13T04:43:04;99864.28;;;9.69;85.21
42603;BME280;28233;55.748;48.752;2022-09-13T04:45:07;99866.94;;;9.74;84.35
42603;BME280;28233;55.748;48.752;2022-09-13T04:47:10;99870.34;;;9.80;83.44
42603;BME280;28233;55.748;48.752;2022-09-13T04:49:14;99864.44;;;9.86;83.56
42603;BME280;28233;55.748;48.752;2022-09-13T04:51:18;99866.78;;;9.93;83.44
42603;BME280;28233;55.748;48.752;2022-09-13T04:53:20;99864.59;;;10.04;82.41
42603;BME280;28233;55.748;48.752;2022-09-13T04:55:23;99873.72;;;10.13;81.43
42603;BME280;28233;55.748;48.752;2022-09-13T04:57:28;99866.88;;;10.24;80.92
42603;BME280;28233;55.748;48.752;2022-09-13T04:59:30;99882.19;;;10.39;80.67
42603;BME280;28233;55.748;48.752;2022-09-13T05:01:33;99881.97;;;10.49;79.50
42603;BME280;28233;55.748;48.752;2022-09-13T05:03:36;99888.94;;;10.55;78.91
42603;BME280;28233;55.748;48.752;2022-09-13T05:05:39;99887.06;;;10.65;78.67
42603;BME280;28233;55.748;48.752;2022-09-13T05:07:42;99894.44;;;10.78;78.45
42603;BME280;28233;55.748;48.752;2022-09-13T05:09:44;99894.50;;;10.87;77.08
42603;BME280;28233;55.748;48.752;2022-09-13T05:11:47;99897.16;;;11.00;77.33
42603;BME280;28233;55.748;48.752;2022-09-13T05:13:51;99899.81;;;11.14;77.62
42603;BME280;28233;55.748;48.752;2022-09-13T05:15:56;99895.50;;;11.22;76.10
42603;BME280;28233;55.748;48.752;2022-09-13T05:17:59;99897.59;;;11.25;75.56
42603;BME280;28233;55.748;48.752;2022-09-13T05:20:03;99899.09;;;11.31;75.53
42603;BME280;28233;55.748;48.752;2022-09-13T05:22:07;99896.00;;;11.33;74.66
42603;BME280;28233;55.748;48.752;2022-09-13T05:24:09;99907.06;;;11.41;75.29
42603;BME280;28233;55.748;48.752;2022-09-13T05:26:13;99902.56;;;11.46;75.79
42603;BME280;28233;55.748;48.752;2022-09-13T05:28:15;99907.72;;;11.47;75.15
42603;BME280;28233;55.748;48.752;2022-09-13T05:30:18;99905.97;;;11.51;75.47
42603;BME280;28233;55.748;48.752;2022-09-13T05:32:20;99908.41;;;11.53;75.78
42603;BME280;28233;55.748;48.752;2022-09-13T05:34:23;99901.78;;;11.62;76.06
42603;BME280;28233;55.748;48.752;2022-09-13T05:36:26;99909.09;;;11.67;76.09
42603;BME280;28233;55.748;48.752;2022-09-13T05:38:28;99909.25;;;11.71;75.94
42603;BME280;28233;55.748;48.752;2022-09-13T05:40:31;99906.34;;;11.67;75.34
42603;BME280;28233;55.748;48.752;2022-09-13T05:42:34;99909.59;;;11.69;75.43
42603;BME280;28233;55.748;48.752;2022-09-13T05:44:38;99909.75;;;11.73;75.79
42603;BME280;28233;55.748;48.752;2022-09-13T05:46:41;99913.03;;;11.83;75.48
42603;BME280;28233;55.748;48.752;2022-09-13T05:48:45;99922.59;;;11.86;75.15
42603;BME280;28233;55.748;48.752;2022-09-13T05:50:48;99918.91;;;11.91;74.80
42603;BME280;28233;55.748;48.752;2022-09-13T05:52:59;99910.28;;;11.92;75.02
42603;BME280;28233;55.748;48.752;2022-09-13T05:55:02;99913.88;;;12.01;75.76
42603;BME280;28233;55.748;48.752;2022-09-13T05:57:05;99919.41;;;12.10;75.47
42603;BME280;28233;55.748;48.752;2022-09-13T05:59:11;99913.75;;;12.15;75.36
42603;BME280;28233;55.748;48.752;2022-09-13T06:01:17;99919.75;;;12.17;75.10
42603;BME280;28233;55.748;48.752;2022-09-13T06:03:20;99918.63;;;12.18;74.68
42603;BME280;28233;55.748;48.752;2022-09-13T06:05:23;99916.97;;;12.09;74.54
42603;BME280;28233;55.748;48.752;2022-09-13T06:07:32;99920.22;;;12.02;74.45
42603;BME280;28233;55.748;48.752;2022-09-13T06:09:35;99928.94;;;11.95;74.74
42603;BME280;28233;55.748;48.752;2022-09-13T06:11:37;99915.97;;;11.96;74.64
42603;BME280;28233;55.748;48.752;2022-09-13T06:13:40;99918.56;;;11.92;75.09
42603;BME280;28233;55.748;48.752;2022-09-13T06:15:46;99923.44;;;11.95;75.03
42603;BME280;28233;55.748;48.752;2022-09-13T06:17:48;99918.91;;;11.91;75.69
42603;BME280;28233;55.748;48.752;2022-09-13T06:19:51;99910.97;;;11.98;75.33
42603;BME280;28233;55.748;48.752;2022-09-13T06:21:53;99901.75;;;12.02;75.62
42603;BME280;28233;55.748;48.752;2022-09-13T06:23:56;99905.63;;;12.10;75.62
42603;BME280;28233;55.748;48.752;2022-09-13T06:26:03;99906.47;;;12.19;75.58
42603;BME280;28233;55.748;48.752;2022-09-13T06:28:06;99901.09;;;12.32;75.21
42603;BME280;28233;55.748;48.752;2022-09-13T06:30:09;99899.66;;;12.43;74.73
42603;BME280;28233;55.748;48.752;2022-09-13T06:32:14;99887.16;;;12.54;74.15
42603;BME280;28233;55.748;48.752;2022-09-13T06:34:17;99881.47;;;12.68;73.61
42603;BME280;28233;55.748;48.752;2022-09-13T06:36:19;99877.75;;;12.73;72.50
42603;BME280;28233;55.748;48.752;2022-09-13T06:38:22;99874.00;;;12.68;72.76
42603;BME280;28233;55.748;48.752;2022-09-13T06:40:25;99883.06;;;12.78;72.84
42603;BME280;28233;55.748;48.752;2022-09-13T06:42:27;99871.88;;;12.83;73.26
42603;BME280;28233;55.748;48.752;2022-09-13T06:44:30;99880.13;;;12.92;72.77
42603;BME280;28233;55.748;48.752;2022-09-13T06:46:33;99874.41;;;13.05;72.08
42603;BME280;28233;55.748;48.752;2022-09-13T06:48:38;99873.75;;;13.08;71.46
42603;BME280;28233;55.748;48.752;2022-09-13T06:50:41;99875.66;;;13.17;71.26
42603;BME280;28233;55.748;48.752;2022-09-13T06:52:43;99867.34;;;13.25;71.01
42603;BME280;28233;55.748;48.752;2022-09-13T06:54:46;99872.38;;;13.32;70.62
42603;BME280;28233;55.748;48.752;2022-09-13T06:56:49;99874.00;;;13.33;69.19
42603;BME280;28233;55.748;48.752;2022-09-13T06:58:56;99876.59;;;13.38;69.69
42603;BME280;28233;55.748;48.752;2022-09-13T07:03:10;99879.81;;;13.40;70.32
42603;BME280;28233;55.748;48.752;2022-09-13T07:05:13;99879.63;;;13.45;69.23
42603;BME280;28233;55.748;48.752;2022-09-13T07:07:18;99890.50;;;13.50;68.90
42603;BME280;28233;55.748;48.752;2022-09-13T07:09:21;99886.06;;;13.58;68.59
42603;BME280;28233;55.748;48.752;2022-09-13T07:11:27;99881.50;;;13.62;68.48
42603;BME280;28233;55.748;48.752;2022-09-13T07:13:30;99884.19;;;13.71;68.07
42603;BME280;28233;55.748;48.752;2022-09-13T07:15:35;99886.22;;;13.83;68.32
42603;BME280;28233;55.748;48.752;2022-09-13T07:17:38;99878.16;;;13.99;67.77
42603;BME280;28233;55.748;48.752;2022-09-13T07:19:40;99882.63;;;14.12;66.45
42603;BME280;28233;55.748;48.752;2022-09-13T07:21:43;99876.16;;;14.29;65.51
42603;BME280;28233;55.748;48.752;2022-09-13T07:23:47;99871.50;;;14.42;63.71
42603;BME280;28233;55.748;48.752;2022-09-13T07:25:54;99870.28;;;14.51;63.01
42603;BME280;28233;55.748;48.752;2022-09-13T07:27:57;99873.38;;;14.71;62.90
42603;BME280;28233;55.748;48.752;2022-09-13T07:30:01;99874.81;;;14.89;61.03
42603;BME280;28233;55.748;48.752;2022-09-13T07:32:05;99868.81;;;14.99;60.51
42603;BME280;28233;55.748;48.752;2022-09-13T07:34:12;99860.53;;;15.12;58.82
42603;BME280;28233;55.748;48.752;2022-09-13T07:36:15;99866.44;;;15.10;58.62
42603;BME280;28233;55.748;48.752;2022-09-13T07:38:18;99864.47;;;15.11;59.04
42603;BME280;28233;55.748;48.752;2022-09-13T07:40:21;99853.97;;;15.04;59.91
42603;BME280;28233;55.748;48.752;2022-09-13T07:42:23;99857.28;;;14.97;58.12
42603;BME280;28233;55.748;48.752;2022-09-13T07:44:26;99844.00;;;14.91;57.84
42603;BME280;28233;55.748;48.752;2022-09-13T07:46:31;99852.22;;;14.87;57.08
42603;BME280;28233;55.748;48.752;2022-09-13T07:48:36;99845.03;;;14.86;57.57
42603;BME280;28233;55.748;48.752;2022-09-13T07:50:40;99859.09;;;14.81;57.45
42603;BME280;28233;55.748;48.752;2022-09-13T07:52:42;99857.03;;;14.78;57.39
42603;BME280;28233;55.748;48.752;2022-09-13T07:54:45;99865.00;;;14.79;57.49
42603;BME280;28233;55.748;48.752;2022-09-13T07:56:49;99860.47;;;14.75;57.15
42603;BME280;28233;55.748;48.752;2022-09-13T07:58:53;99860.25;;;14.80;57.53
42603;BME280;28233;55.748;48.752;2022-09-13T08:01:02;99871.00;;;14.82;57.97
42603;BME280;28233;55.748;48.752;2022-09-13T08:03:06;99868.34;;;14.85;58.09
42603;BME280;28233;55.748;48.752;2022-09-13T08:05:10;99870.06;;;14.90;59.80
42603;BME280;28233;55.748;48.752;2022-09-13T08:07:12;99872.75;;;14.98;58.59
42603;BME280;28233;55.748;48.752;2022-09-13T08:09:17;99877.72;;;15.05;57.74
42603;BME280;28233;55.748;48.752;2022-09-13T08:11:25;99872.78;;;15.11;58.17
42603;BME280;28233;55.748;48.752;2022-09-13T08:13:29;99870.56;;;15.16;58.72
42603;BME280;28233;55.748;48.752;2022-09-13T08:15:33;99870.00;;;15.23;59.05
42603;BME280;28233;55.748;48.752;2022-09-13T08:17:36;99867.16;;;15.32;58.70
42603;BME280;28233;55.748;48.752;2022-09-13T08:19:38;99864.59;;;15.51;58.71
42603;BME280;28233;55.748;48.752;2022-09-13T08:21:41;99869.91;;;15.56;57.25
42603;BME280;28233;55.748;48.752;2022-09-13T08:23:45;99877.53;;;15.59;56.61
42603;BME280;28233;55.748;48.752;2022-09-13T08:25:48;99861.59;;;15.56;56.43
42603;BME280;28233;55.748;48.752;2022-09-13T08:27:50;99862.44;;;15.57;56.89
42603;BME280;28233;55.748;48.752;2022-09-13T08:29:53;99858.25;;;15.51;56.53
42603;BME280;28233;55.748;48.752;2022-09-13T08:31:55;99858.38;;;15.67;56.56
42603;BME280;28233;55.748;48.752;2022-09-13T08:33:58;99853.19;;;15.65;55.79
42603;BME280;28233;55.748;48.752;2022-09-13T08:36:02;99849.00;;;15.59;55.63
42603;BME280;28233;55.748;48.752;2022-09-13T08:38:05;99860.91;;;15.59;56.10
42603;BME280;28233;55.748;48.752;2022-09-13T08:40:08;99857.69;;;15.57;55.95
42603;BME280;28233;55.748;48.752;2022-09-13T08:44:45;99853.41;;;15.60;56.81
42603;BME280;28233;55.748;48.752;2022-09-13T08:46:49;99856.88;;;15.69;56.13
42603;BME280;28233;55.748;48.752;2022-09-13T08:48:57;99848.22;;;15.71;55.43
42603;BME280;28233;55.748;48.752;2022-09-13T08:51:05;99843.81;;;15.70;55.41
42603;BME280;28233;55.748;48.752;2022-09-13T08:53:17;99839.69;;;15.76;54.81
42603;BME280;28233;55.748;48.752;2022-09-13T08:55:31;99843.38;;;15.80;54.17
42603;BME280;28233;55.748;48.752;2022-09-13T08:57:44;99840.00;;;15.87;55.16
42603;BME280;28233;55.748;48.752;2022-09-13T09:04:35;99844.00;;;16.14;53.09
42603;BME280;28233;55.748;48.752;2022-09-13T09:06:41;99831.16;;;16.21;52.55
42603;BME280;28233;55.748;48.752;2022-09-13T09:08:48;99837.59;;;16.25;53.38
42603;BME280;28233;55.748;48.752;2022-09-13T09:10:54;99841.94;;;16.39;53.65
42603;BME280;28233;55.748;48.752;2022-09-13T09:13:03;99833.19;;;16.24;51.89
42603;BME280;28233;55.748;48.752;2022-09-13T09:15:30;99833.41;;;16.32;51.36
42603;BME280;28233;55.748;48.752;2022-09-13T09:20:08;99822.16;;;16.40;51.44
42603;BME280;28233;55.748;48.752;2022-09-13T09:22:20;99822.03;;;16.49;51.68
42603;BME280;28233;55.748;48.752;2022-09-13T09:24:25;99825.44;;;16.58;50.27
42603;BME280;28233;55.748;48.752;2022-09-13T09:26:30;99834.59;;;16.75;49.77
42603;BME280;28233;55.748;48.752;2022-09-13T09:28:35;99834.44;;;16.83;49.58
42603;BME280;28233;55.748;48.752;2022-09-13T09:30:45;99831.41;;;16.88;48.86
42603;BME280;28233;55.748;48.752;2022-09-13T09:37:22;99832.59;;;17.03;47.79
42603;BME280;28233;55.748;48.752;2022-09-13T09:39:48;99831.81;;;17.03;47.92
42603;BME280;28233;55.748;48.752;2022-09-13T09:41:54;99830.00;;;17.10;46.86
42603;BME280;28233;55.748;48.752;2022-09-13T09:46:02;99824.91;;;17.13;46.62
42603;BME280;28233;55.748;48.752;2022-09-13T09:48:13;99821.69;;;17.26;46.90
42603;BME280;28233;55.748;48.752;2022-09-13T09:50:24;99826.31;;;17.38;45.15
42603;BME280;28233;55.748;48.752;2022-09-13T09:54:56;99819.97;;;17.73;44.36
42603;BME280;28233;55.748;48.752;2022-09-13T09:57:01;99824.09;;;17.79;43.84
42603;BME280;28233;55.748;48.752;2022-09-13T09:59:03;99813.09;;;17.83;43.83
42603;BME280;28233;55.748;48.752;2022-09-13T10:03:22;99809.63;;;17.89;43.32
42603;BME280;28233;55.748;48.752;2022-09-13T10:05:26;99811.31;;;17.94;44.05
42603;BME280;28233;55.748;48.752;2022-09-13T10:07:33;99807.84;;;18.16;44.37
42603;BME280;28233;55.748;48.752;2022-09-13T10:09:38;99805.72;;;18.10;43.14
42603;BME280;28233;55.748;48.752;2022-09-13T10:14:01;99801.59;;;18.04;43.99
42603;BME280;28233;55.748;48.752;2022-09-13T10:16:20;99804.81;;;18.06;44.02
42603;BME280;28233;55.748;48.752;2022-09-13T10:18:27;99798.00;;;18.03;44.02
42603;BME280;28233;55.748;48.752;2022-09-13T10:21:03;99803.56;;;17.84;43.47
42603;BME280;28233;55.748;48.752;2022-09-13T10:27:36;99807.25;;;17.88;41.53
42603;BME280;28233;55.748;48.752;2022-09-13T10:29:47;99808.09;;;17.92;42.70
42603;BME280;28233;55.748;48.752;2022-09-13T10:31:52;99792.25;;;17.92;41.96
42603;BME280;28233;55.748;48.752;2022-09-13T10:34:00;99791.00;;;17.90;41.56
42603;BME280;28233;55.748;48.752;2022-09-13T10:36:17;99793.69;;;18.06;42.88
42603;BME280;28233;55.748;48.752;2022-09-13T10:39:28;99788.66;;;18.11;42.17
42603;BME280;28233;55.748;48.752;2022-09-13T10:41:21;99788.50;;;18.24;42.10
42603;BME280;28233;55.748;48.752;2022-09-13T10:43:28;99779.69;;;18.41;40.82
42603;BME280;28233;55.748;48.752;2022-09-13T10:45:31;99775.38;;;18.44;39.59
42603;BME280;28233;55.748;48.752;2022-09-13T10:47:43;99775.47;;;18.28;39.88
42603;BME280;28233;55.748;48.752;2022-09-13T10:49:51;99779.28;;;18.20;39.62
42603;BME280;28233;55.748;48.752;2022-09-13T10:51:55;99763.94;;;18.06;40.75
42603;BME280;28233;55.748;48.752;2022-09-13T10:54:07;99775.22;;;18.13;40.04
42603;BME280;28233;55.748;48.752;2022-09-13T10:56:24;99768.22;;;18.04;38.83
42603;BME280;28233;55.748;48.752;2022-09-13T10:58:27;99760.28;;;18.02;39.12
42603;BME280;28233;55.748;48.752;2022-09-13T11:00:33;99765.09;;;18.05;40.43
42603;BME280;28233;55.748;48.752;2022-09-13T11:17:26;99758.44;;;18.10;40.18
42603;BME280;28233;55.748;48.752;2022-09-13T11:23:26;99761.28;;;18.33;39.28
42603;BME280;28233;55.748;48.752;2022-09-13T11:34:51;99745.38;;;18.33;38.73
42603;BME280;28233;55.748;48.752;2022-09-13T11:42:28;99737.50;;;18.16;37.54
42603;BME280;28233;55.748;48.752;2022-09-13T11:52:01;99754.13;;;18.12;39.51
42603;BME280;28233;55.748;48.752;2022-09-13T11:56:48;99751.75;;;18.34;38.70
42603;BME280;28233;55.748;48.752;2022-09-13T11:59:05;99742.59;;;18.33;37.83
42603;BME280;28233;55.748;48.752;2022-09-13T12:01:22;99742.91;;;18.28;37.95
42603;BME280;28233;55.748;48.752;2022-09-13T12:03:37;99751.69;;;18.30;38.72
42603;BME280;28233;55.748;48.752;2022-09-13T12:05:47;99752.06;;;18.29;39.35
42603;BME280;28233;55.748;48.752;2022-09-13T12:10:38;99745.56;;;18.21;38.25
42603;BME280;28233;55.748;48.752;2022-09-13T12:12:45;99755.13;;;18.24;39.29
42603;BME280;28233;55.748;48.752;2022-09-13T12:14:56;99749.13;;;18.22;39.53
42603;BME280;28233;55.748;48.752;2022-09-13T12:17:21;99747.97;;;18.03;38.36
42603;BME280;28233;55.748;48.752;2022-09-13T12:19:30;99751.13;;;18.02;38.71
42603;BME280;28233;55.748;48.752;2022-09-13T12:21:38;99744.53;;;17.90;39.09
42603;BME280;28233;55.748;48.752;2022-09-13T12:24:01;99741.63;;;17.83;39.40
42603;BME280;28233;55.748;48.752;2022-09-13T12:26:14;99738.91;;;17.87;40.12
42603;BME280;28233;55.748;48.752;2022-09-13T12:28:39;99745.19;;;17.84;40.58
42603;BME280;28233;55.748;48.752;2022-09-13T12:30:50;99747.72;;;17.73;39.21
42603;BME280;28233;55.748;48.752;2022-09-13T12:32:54;99743.03;;;17.77;40.55
42603;BME280;28233;55.748;48.752;2022-09-13T12:35:06;99754.09;;;17.73;40.34
42603;BME280;28233;55.748;48.752;2022-09-13T12:42:44;99746.88;;;17.88;40.21
42603;BME280;28233;55.748;48.752;2022-09-13T12:52:11;99742.72;;;17.98;40.99
42603;BME280;28233;55.748;48.752;2022-09-13T13:01:30;99735.31;;;18.06;41.68
42603;BME280;28233;55.748;48.752;2022-09-13T13:05:49;99731.50;;;18.14;41.63
42603;BME280;28233;55.748;48.752;2022-09-13T13:07:56;99717.53;;;18.10;40.94
42603;BME280;28233;55.748;48.752;2022-09-13T13:10:00;99730.72;;;18.13;40.70
42603;BME280;28233;55.748;48.752;2022-09-13T13:12:04;99726.75;;;18.14;40.97
42603;BME280;28233;55.748;48.752;2022-09-13T13:16:39;99722.22;;;18.06;41.78
42603;BME280;28233;55.748;48.752;2022-09-13T13:18:44;99711.34;;;17.98;41.74
42603;BME280;28233;55.748;48.752;2022-09-13T13:23:03;99709.34;;;17.79;42.63
42603;BME280;28233;55.748;48.752;2022-09-13T13:25:34;99708.25;;;17.64;41.80
42603;BME280;28233;55.748;48.752;2022-09-13T13:27:40;99698.97;;;17.40;42.00
42603;BME280;28233;55.748;48.752;2022-09-13T13:32:30;99705.59;;;17.16;43.72
42603;BME280;28233;55.748;48.752;2022-09-13T13:38:46;99690.47;;;16.98;42.73
42603;BME280;28233;55.748;48.752;2022-09-13T13:40:50;99691.16;;;16.91;43.61
42603;BME280;28233;55.748;48.752;2022-09-13T13:43:31;99682.56;;;16.80;43.42
42603;BME280;28233;55.748;48.752;2022-09-13T13:45:35;99683.16;;;16.74;43.31